sensor_id;sensor_type;location;lat;lon;timestamp;P1;durP1;ratioP1;P2;durP2;ratioP2
56720;SDS011;53183;47.412;18.884;2023-04-29T00:01:29;11.77;;;5.05;;
56720;SDS011;53183;47.412;18.884;2023-04-29T00:03:58;13.30;;;4.82;;
56720;SDS011;53183;47.412;18.884;2023-04-29T00:06:25;10.30;;;4.00;;
56720;SDS011;53183;47.412;18.884;2023-04-29T00:08:54;14.55;;;4.70;;
56720;SDS011;53183;47.412;18.884;2023-04-29T00:11:21;16.10;;;5.75;;
56720;SDS011;53183;47.412;18.884;2023-04-29T00:13:48;13.35;;;5.45;;
56720;SDS011;53183;47.412;18.884;2023-04-29T00:16:15;15.85;;;6.28;;
56720;SDS011;53183;47.412;18.884;2023-04-29T00:18:43;13.62;;;6.12;;
56720;SDS011;53183;47.412;18.884;2023-04-29T00:21:10;22.60;;;7.55;;
56720;SDS011;53183;47.412;18.884;2023-04-29T00:23:37;14.98;;;7.35;;
56720;SDS011;53183;47.412;18.884;2023-04-29T00:26:05;15.88;;;7.12;;
56720;SDS011;53183;47.412;18.884;2023-04-29T00:28:32;18.50;;;6.43;;
56720;SDS011;53183;47.412;18.884;2023-04-29T00:30:59;25.30;;;7.28;;
56720;SDS011;53183;47.412;18.884;2023-04-29T00:33:26;19.08;;;6.70;;
56720;SDS011;53183;47.412;18.884;2023-04-29T00:35:53;16.65;;;7.55;;
56720;SDS011;53183;47.412;18.884;2023-04-29T00:38:21;20.65;;;7.28;;
56720;SDS011;53183;47.412;18.884;2023-04-29T00:40:49;17.52;;;6.53;;
56720;SDS011;53183;47.412;18.884;2023-04-29T00:43:16;21.70;;;7.05;;
56720;SDS011;53183;47.412;18.884;2023-04-29T00:45:44;20.15;;;7.10;;
56720;SDS011;53183;47.412;18.884;2023-04-29T00:48:13;17.80;;;7.12;;
56720;SDS011;53183;47.412;18.884;2023-04-29T00:50:41;20.15;;;7.85;;
56720;SDS011;53183;47.412;18.884;2023-04-29T00:53:09;18.52;;;7.22;;
56720;SDS011;53183;47.412;18.884;2023-04-29T00:55:41;18.27;;;7.12;;
56720;SDS011;53183;47.412;18.884;2023-04-29T00:58:10;19.75;;;6.97;;
56720;SDS011;53183;47.412;18.884;2023-04-29T01:00:37;15.98;;;6.93;;
56720;SDS011;53183;47.412;18.884;2023-04-29T01:03:05;20.70;;;7.35;;
56720;SDS011;53183;47.412;18.884;2023-04-29T01:05:34;19.27;;;7.47;;
56720;SDS011;53183;47.412;18.884;2023-04-29T01:08:11;17.17;;;6.60;;
56720;SDS011;53183;47.412;18.884;2023-04-29T01:13:30;15.30;;;6.68;;
56720;SDS011;53183;47.412;18.884;2023-04-29T01:16:20;17.50;;;6.57;;
56720;SDS011;53183;47.412;18.884;2023-04-29T01:18:53;15.60;;;5.50;;
56720;SDS011;53183;47.412;18.884;2023-04-29T01:21:24;15.65;;;6.43;;
56720;SDS011;53183;47.412;18.884;2023-04-29T01:23:51;16.90;;;7.20;;
56720;SDS011;53183;47.412;18.884;2023-04-29T01:26:23;20.12;;;8.13;;
56720;SDS011;53183;47.412;18.884;2023-04-29T01:28:58;23.95;;;8.40;;
56720;SDS011;53183;47.412;18.884;2023-04-29T01:31:44;30.02;;;10.10;;
56720;SDS011;53183;47.412;18.884;2023-04-29T01:40:21;26.62;;;9.90;;
56720;SDS011;53183;47.412;18.884;2023-04-29T01:43:06;22.80;;;8.05;;
56720;SDS011;53183;47.412;18.884;2023-04-29T01:45:38;27.92;;;9.13;;
56720;SDS011;53183;47.412;18.884;2023-04-29T01:48:07;31.62;;;10.45;;
56720;SDS011;53183;47.412;18.884;2023-04-29T01:50:35;23.40;;;9.38;;
56720;SDS011;53183;47.412;18.884;2023-04-29T01:53:09;24.10;;;9.38;;
56720;SDS011;53183;47.412;18.884;2023-04-29T01:55:36;25.60;;;9.18;;
56720;SDS011;53183;47.412;18.884;2023-04-29T01:58:06;23.45;;;8.30;;
56720;SDS011;53183;47.412;18.884;2023-04-29T02:00:33;22.48;;;8.15;;
56720;SDS011;53183;47.412;18.884;2023-04-29T02:03:01;25.80;;;8.63;;
56720;SDS011;53183;47.412;18.884;2023-04-29T02:05:29;26.23;;;7.57;;
56720;SDS011;53183;47.412;18.884;2023-04-29T02:08:00;23.85;;;8.68;;
56720;SDS011;53183;47.412;18.884;2023-04-29T02:10:28;25.80;;;9.15;;
56720;SDS011;53183;47.412;18.884;2023-04-29T02:12:56;39.05;;;9.80;;
56720;SDS011;53183;47.412;18.884;2023-04-29T02:15:26;26.10;;;10.32;;
56720;SDS011;53183;47.412;18.884;2023-04-29T02:17:55;28.12;;;8.68;;
56720;SDS011;53183;47.412;18.884;2023-04-29T02:20:22;31.73;;;10.60;;
56720;SDS011;53183;47.412;18.884;2023-04-29T02:22:49;30.35;;;10.25;;
56720;SDS011;53183;47.412;18.884;2023-04-29T02:25:19;34.38;;;11.77;;
56720;SDS011;53183;47.412;18.884;2023-04-29T02:27:47;36.72;;;12.88;;
56720;SDS011;53183;47.412;18.884;2023-04-29T02:30:14;34.45;;;10.52;;
56720;SDS011;53183;47.412;18.884;2023-04-29T02:32:42;34.72;;;11.73;;
56720;SDS011;53183;47.412;18.884;2023-04-29T02:35:13;27.27;;;11.02;;
56720;SDS011;53183;47.412;18.884;2023-04-29T02:37:40;25.62;;;11.00;;
56720;SDS011;53183;47.412;18.884;2023-04-29T02:40:07;27.83;;;10.13;;
56720;SDS011;53183;47.412;18.884;2023-04-29T02:42:35;26.35;;;10.43;;
56720;SDS011;53183;47.412;18.884;2023-04-29T02:45:03;31.25;;;9.43;;
56720;SDS011;53183;47.412;18.884;2023-04-29T02:47:31;30.95;;;9.55;;
56720;SDS011;53183;47.412;18.884;2023-04-29T02:49:59;23.38;;;8.40;;
56720;SDS011;53183;47.412;18.884;2023-04-29T02:52:26;22.33;;;9.90;;
56720;SDS011;53183;47.412;18.884;2023-04-29T02:54:53;24.95;;;8.43;;
56720;SDS011;53183;47.412;18.884;2023-04-29T02:57:21;21.98;;;8.70;;
56720;SDS011;53183;47.412;18.884;2023-04-29T02:59:48;21.00;;;7.43;;
56720;SDS011;53183;47.412;18.884;2023-04-29T03:02:15;23.58;;;7.90;;
56720;SDS011;53183;47.412;18.884;2023-04-29T03:04:44;19.30;;;7.03;;
56720;SDS011;53183;47.412;18.884;2023-04-29T03:07:11;14.35;;;7.12;;
56720;SDS011;53183;47.412;18.884;2023-04-29T03:09:38;14.77;;;6.78;;
56720;SDS011;53183;47.412;18.884;2023-04-29T03:12:05;14.77;;;6.65;;
56720;SDS011;53183;47.412;18.884;2023-04-29T03:14:32;17.67;;;6.00;;
56720;SDS011;53183;47.412;18.884;2023-04-29T03:17:00;18.00;;;6.90;;
56720;SDS011;53183;47.412;18.884;2023-04-29T03:19:27;19.67;;;6.87;;
56720;SDS011;53183;47.412;18.884;2023-04-29T03:21:55;15.95;;;6.78;;
56720;SDS011;53183;47.412;18.884;2023-04-29T03:24:22;16.10;;;6.35;;
56720;SDS011;53183;47.412;18.884;2023-04-29T03:26:49;28.60;;;7.65;;
56720;SDS011;53183;47.412;18.884;2023-04-29T03:29:18;14.05;;;6.32;;
56720;SDS011;53183;47.412;18.884;2023-04-29T03:31:46;16.23;;;6.75;;
56720;SDS011;53183;47.412;18.884;2023-04-29T03:34:14;17.52;;;6.37;;
56720;SDS011;53183;47.412;18.884;2023-04-29T03:36:42;12.82;;;6.35;;
56720;SDS011;53183;47.412;18.884;2023-04-29T03:39:10;20.35;;;6.75;;
56720;SDS011;53183;47.412;18.884;2023-04-29T03:41:41;20.45;;;6.95;;
56720;SDS011;53183;47.412;18.884;2023-04-29T03:44:08;17.00;;;6.72;;
56720;SDS011;53183;47.412;18.884;2023-04-29T03:46:36;15.40;;;6.55;;
56720;SDS011;53183;47.412;18.884;2023-04-29T03:49:04;14.63;;;6.45;;
56720;SDS011;53183;47.412;18.884;2023-04-29T03:51:31;16.80;;;6.10;;
56720;SDS011;53183;47.412;18.884;2023-04-29T03:53:59;16.40;;;6.57;;
56720;SDS011;53183;47.412;18.884;2023-04-29T03:56:26;17.15;;;6.45;;
56720;SDS011;53183;47.412;18.884;2023-04-29T03:58:54;10.95;;;5.32;;
56720;SDS011;53183;47.412;18.884;2023-04-29T04:01:21;12.77;;;5.00;;
56720;SDS011;53183;47.412;18.884;2023-04-29T04:03:50;10.98;;;5.05;;
56720;SDS011;53183;47.412;18.884;2023-04-29T04:06:18;10.13;;;4.75;;
56720;SDS011;53183;47.412;18.884;2023-04-29T04:08:46;15.45;;;4.95;;
56720;SDS011;53183;47.412;18.884;2023-04-29T04:11:14;10.88;;;5.00;;
56720;SDS011;53183;47.412;18.884;2023-04-29T04:13:41;9.90;;;4.68;;
56720;SDS011;53183;47.412;18.884;2023-04-29T04:16:09;10.32;;;4.57;;
56720;SDS011;53183;47.412;18.884;2023-04-29T04:18:37;6.05;;;3.83;;
56720;SDS011;53183;47.412;18.884;2023-04-29T04:21:08;12.43;;;4.85;;
56720;SDS011;53183;47.412;18.884;2023-04-29T04:23:37;9.73;;;4.12;;
56720;SDS011;53183;47.412;18.884;2023-04-29T04:26:07;6.85;;;4.37;;
56720;SDS011;53183;47.412;18.884;2023-04-29T04:28:37;11.82;;;4.03;;
56720;SDS011;53183;47.412;18.884;2023-04-29T04:31:05;9.00;;;4.28;;
56720;SDS011;53183;47.412;18.884;2023-04-29T04:33:33;12.30;;;4.43;;
56720;SDS011;53183;47.412;18.884;2023-04-29T04:36:01;10.98;;;5.05;;
56720;SDS011;53183;47.412;18.884;2023-04-29T04:38:28;9.50;;;3.95;;
56720;SDS011;53183;47.412;18.884;2023-04-29T04:40:55;6.05;;;3.78;;
56720;SDS011;53183;47.412;18.884;2023-04-29T04:43:23;9.00;;;3.78;;
56720;SDS011;53183;47.412;18.884;2023-04-29T04:45:51;7.65;;;4.10;;
56720;SDS011;53183;47.412;18.884;2023-04-29T04:48:19;9.23;;;3.78;;
56720;SDS011;53183;47.412;18.884;2023-04-29T04:50:47;6.53;;;3.95;;
56720;SDS011;53183;47.412;18.884;2023-04-29T04:53:15;7.80;;;4.32;;
56720;SDS011;53183;47.412;18.884;2023-04-29T04:55:43;5.70;;;4.00;;
56720;SDS011;53183;47.412;18.884;2023-04-29T04:58:12;6.20;;;3.70;;
56720;SDS011;53183;47.412;18.884;2023-04-29T05:00:42;6.15;;;3.72;;
56720;SDS011;53183;47.412;18.884;2023-04-29T05:03:11;8.50;;;4.20;;
56720;SDS011;53183;47.412;18.884;2023-04-29T05:05:38;15.07;;;3.95;;
56720;SDS011;53183;47.412;18.884;2023-04-29T05:08:06;7.68;;;3.92;;
56720;SDS011;53183;47.412;18.884;2023-04-29T05:10:37;5.35;;;3.78;;
56720;SDS011;53183;47.412;18.884;2023-04-29T05:13:05;6.85;;;3.92;;
56720;SDS011;53183;47.412;18.884;2023-04-29T05:15:34;11.23;;;4.57;;
56720;SDS011;53183;47.412;18.884;2023-04-29T05:18:02;9.25;;;4.45;;
56720;SDS011;53183;47.412;18.884;2023-04-29T05:20:30;10.23;;;5.05;;
56720;SDS011;53183;47.412;18.884;2023-04-29T05:22:57;6.82;;;4.00;;
56720;SDS011;53183;47.412;18.884;2023-04-29T05:25:26;10.60;;;4.93;;
56720;SDS011;53183;47.412;18.884;2023-04-29T05:27:53;10.57;;;5.10;;
56720;SDS011;53183;47.412;18.884;2023-04-29T05:30:21;12.55;;;5.47;;
56720;SDS011;53183;47.412;18.884;2023-04-29T05:32:48;10.55;;;5.03;;
56720;SDS011;53183;47.412;18.884;2023-04-29T05:35:16;9.45;;;5.20;;
56720;SDS011;53183;47.412;18.884;2023-04-29T05:37:44;13.25;;;5.53;;
56720;SDS011;53183;47.412;18.884;2023-04-29T05:40:12;12.93;;;6.10;;
56720;SDS011;53183;47.412;18.884;2023-04-29T05:42:41;8.80;;;5.05;;
56720;SDS011;53183;47.412;18.884;2023-04-29T05:45:08;6.93;;;4.55;;
56720;SDS011;53183;47.412;18.884;2023-04-29T05:47:36;8.32;;;4.90;;
56720;SDS011;53183;47.412;18.884;2023-04-29T05:50:04;11.85;;;5.20;;
56720;SDS011;53183;47.412;18.884;2023-04-29T05:52:31;8.85;;;4.45;;
56720;SDS011;53183;47.412;18.884;2023-04-29T05:54:58;11.75;;;5.47;;
56720;SDS011;53183;47.412;18.884;2023-04-29T05:57:26;9.35;;;5.10;;
56720;SDS011;53183;47.412;18.884;2023-04-29T05:59:53;12.32;;;5.75;;
56720;SDS011;53183;47.412;18.884;2023-04-29T06:02:25;9.55;;;4.78;;
56720;SDS011;53183;47.412;18.884;2023-04-29T06:04:54;15.32;;;6.05;;
56720;SDS011;53183;47.412;18.884;2023-04-29T06:07:23;10.60;;;5.40;;
56720;SDS011;53183;47.412;18.884;2023-04-29T06:09:52;7.35;;;5.00;;
56720;SDS011;53183;47.412;18.884;2023-04-29T06:12:21;10.30;;;5.07;;
56720;SDS011;53183;47.412;18.884;2023-04-29T06:14:48;6.50;;;4.50;;
56720;SDS011;53183;47.412;18.884;2023-04-29T06:17:16;6.22;;;4.32;;
56720;SDS011;53183;47.412;18.884;2023-04-29T06:19:43;10.77;;;5.25;;
56720;SDS011;53183;47.412;18.884;2023-04-29T06:22:10;5.95;;;4.47;;
56720;SDS011;53183;47.412;18.884;2023-04-29T06:24:38;8.90;;;4.32;;
56720;SDS011;53183;47.412;18.884;2023-04-29T06:27:06;8.05;;;4.40;;
56720;SDS011;53183;47.412;18.884;2023-04-29T06:29:33;10.82;;;4.87;;
56720;SDS011;53183;47.412;18.884;2023-04-29T06:32:01;11.82;;;5.10;;
56720;SDS011;53183;47.412;18.884;2023-04-29T06:34:28;6.30;;;4.55;;
56720;SDS011;53183;47.412;18.884;2023-04-29T06:36:57;7.35;;;4.53;;
56720;SDS011;53183;47.412;18.884;2023-04-29T06:39:26;7.37;;;4.80;;
56720;SDS011;53183;47.412;18.884;2023-04-29T06:41:54;8.10;;;5.30;;
56720;SDS011;53183;47.412;18.884;2023-04-29T06:44:22;10.23;;;4.95;;
56720;SDS011;53183;47.412;18.884;2023-04-29T06:46:49;7.80;;;4.78;;
56720;SDS011;53183;47.412;18.884;2023-04-29T06:49:18;8.65;;;4.37;;
56720;SDS011;53183;47.412;18.884;2023-04-29T06:51:47;10.65;;;6.00;;
56720;SDS011;53183;47.412;18.884;2023-04-29T06:54:15;13.90;;;6.35;;
56720;SDS011;53183;47.412;18.884;2023-04-29T06:56:43;7.70;;;4.78;;
56720;SDS011;53183;47.412;18.884;2023-04-29T06:59:10;10.30;;;5.40;;
56720;SDS011;53183;47.412;18.884;2023-04-29T07:01:40;7.43;;;5.03;;
56720;SDS011;53183;47.412;18.884;2023-04-29T07:04:10;10.93;;;5.93;;
56720;SDS011;53183;47.412;18.884;2023-04-29T07:06:38;8.95;;;6.20;;
56720;SDS011;53183;47.412;18.884;2023-04-29T07:09:05;13.07;;;5.85;;
56720;SDS011;53183;47.412;18.884;2023-04-29T07:11:35;9.98;;;5.35;;
56720;SDS011;53183;47.412;18.884;2023-04-29T07:14:02;9.63;;;6.10;;
56720;SDS011;53183;47.412;18.884;2023-04-29T07:16:29;13.38;;;7.28;;
56720;SDS011;53183;47.412;18.884;2023-04-29T07:18:57;11.32;;;6.47;;
56720;SDS011;53183;47.412;18.884;2023-04-29T07:21:24;13.27;;;6.60;;
56720;SDS011;53183;47.412;18.884;2023-04-29T07:23:52;10.98;;;5.97;;
56720;SDS011;53183;47.412;18.884;2023-04-29T07:26:22;9.13;;;5.62;;
56720;SDS011;53183;47.412;18.884;2023-04-29T07:28:49;8.40;;;5.20;;
56720;SDS011;53183;47.412;18.884;2023-04-29T07:31:16;10.57;;;5.47;;
56720;SDS011;53183;47.412;18.884;2023-04-29T07:33:44;10.23;;;5.53;;
56720;SDS011;53183;47.412;18.884;2023-04-29T07:36:13;7.60;;;5.40;;
56720;SDS011;53183;47.412;18.884;2023-04-29T07:38:40;9.02;;;5.57;;
56720;SDS011;53183;47.412;18.884;2023-04-29T07:41:07;9.80;;;5.62;;
56720;SDS011;53183;47.412;18.884;2023-04-29T07:43:34;10.65;;;4.93;;
56720;SDS011;53183;47.412;18.884;2023-04-29T07:46:02;9.65;;;5.62;;
56720;SDS011;53183;47.412;18.884;2023-04-29T07:48:30;11.05;;;5.53;;
56720;SDS011;53183;47.412;18.884;2023-04-29T07:50:57;9.20;;;5.28;;
56720;SDS011;53183;47.412;18.884;2023-04-29T07:53:24;8.93;;;4.68;;
56720;SDS011;53183;47.412;18.884;2023-04-29T07:55:52;8.98;;;5.37;;
56720;SDS011;53183;47.412;18.884;2023-04-29T07:58:19;7.95;;;5.28;;
56720;SDS011;53183;47.412;18.884;2023-04-29T08:00:46;11.82;;;4.68;;
56720;SDS011;53183;47.412;18.884;2023-04-29T08:03:14;11.55;;;4.18;;
56720;SDS011;53183;47.412;18.884;2023-04-29T08:05:42;9.10;;;3.87;;
56720;SDS011;53183;47.412;18.884;2023-04-29T08:08:13;6.37;;;3.55;;
56720;SDS011;53183;47.412;18.884;2023-04-29T08:10:42;7.12;;;3.72;;
56720;SDS011;53183;47.412;18.884;2023-04-29T08:13:09;9.10;;;4.40;;
56720;SDS011;53183;47.412;18.884;2023-04-29T08:15:38;7.82;;;3.55;;
56720;SDS011;53183;47.412;18.884;2023-04-29T08:18:06;9.13;;;4.45;;
56720;SDS011;53183;47.412;18.884;2023-04-29T08:20:33;10.38;;;4.20;;
56720;SDS011;53183;47.412;18.884;2023-04-29T08:23:00;5.43;;;3.85;;
56720;SDS011;53183;47.412;18.884;2023-04-29T08:25:27;7.80;;;3.62;;
56720;SDS011;53183;47.412;18.884;2023-04-29T08:27:55;5.40;;;4.03;;
56720;SDS011;53183;47.412;18.884;2023-04-29T08:30:23;8.43;;;4.62;;
56720;SDS011;53183;47.412;18.884;2023-04-29T08:32:50;4.35;;;3.50;;
56720;SDS011;53183;47.412;18.884;2023-04-29T08:35:18;7.07;;;3.83;;
56720;SDS011;53183;47.412;18.884;2023-04-29T08:37:45;6.82;;;3.15;;
56720;SDS011;53183;47.412;18.884;2023-04-29T08:40:13;11.23;;;3.10;;
56720;SDS011;53183;47.412;18.884;2023-04-29T08:42:40;6.85;;;3.72;;
56720;SDS011;53183;47.412;18.884;2023-04-29T08:45:13;5.90;;;3.83;;
56720;SDS011;53183;47.412;18.884;2023-04-29T08:47:44;4.43;;;3.33;;
56720;SDS011;53183;47.412;18.884;2023-04-29T08:50:12;8.15;;;3.67;;
56720;SDS011;53183;47.412;18.884;2023-04-29T08:52:40;6.03;;;3.22;;
56720;SDS011;53183;47.412;18.884;2023-04-29T08:55:07;11.15;;;4.00;;
56720;SDS011;53183;47.412;18.884;2023-04-29T08:57:35;5.50;;;3.60;;
56720;SDS011;53183;47.412;18.884;2023-04-29T09:00:06;10.32;;;3.67;;
56720;SDS011;53183;47.412;18.884;2023-04-29T09:02:52;7.20;;;3.62;;
56720;SDS011;53183;47.412;18.884;2023-04-29T09:05:22;6.85;;;3.72;;
56720;SDS011;53183;47.412;18.884;2023-04-29T09:07:50;9.65;;;4.30;;
56720;SDS011;53183;47.412;18.884;2023-04-29T09:10:18;8.55;;;4.12;;
56720;SDS011;53183;47.412;18.884;2023-04-29T09:12:46;5.20;;;3.65;;
56720;SDS011;53183;47.412;18.884;2023-04-29T09:15:13;6.55;;;3.92;;
56720;SDS011;53183;47.412;18.884;2023-04-29T09:17:41;7.65;;;3.97;;
56720;SDS011;53183;47.412;18.884;2023-04-29T09:22:50;5.05;;;2.90;;
56720;SDS011;53183;47.412;18.884;2023-04-29T09:25:19;6.25;;;3.28;;
56720;SDS011;53183;47.412;18.884;2023-04-29T09:27:47;7.47;;;3.62;;
56720;SDS011;53183;47.412;18.884;2023-04-29T09:30:14;8.82;;;3.83;;
56720;SDS011;53183;47.412;18.884;2023-04-29T09:32:42;6.75;;;3.62;;
56720;SDS011;53183;47.412;18.884;2023-04-29T09:35:26;7.57;;;3.60;;
56720;SDS011;53183;47.412;18.884;2023-04-29T09:38:07;9.57;;;3.35;;
56720;SDS011;53183;47.412;18.884;2023-04-29T09:40:37;8.18;;;3.10;;
56720;SDS011;53183;47.412;18.884;2023-04-29T09:43:23;5.50;;;3.22;;
56720;SDS011;53183;47.412;18.884;2023-04-29T09:45:50;6.15;;;3.58;;
56720;SDS011;53183;47.412;18.884;2023-04-29T09:48:18;6.47;;;3.58;;
56720;SDS011;53183;47.412;18.884;2023-04-29T09:50:57;6.93;;;3.62;;
56720;SDS011;53183;47.412;18.884;2023-04-29T09:53:28;8.05;;;3.03;;
56720;SDS011;53183;47.412;18.884;2023-04-29T09:55:58;9.43;;;4.00;;
56720;SDS011;53183;47.412;18.884;2023-04-29T09:58:27;5.30;;;2.72;;
56720;SDS011;53183;47.412;18.884;2023-04-29T10:01:00;9.73;;;3.37;;
56720;SDS011;53183;47.412;18.884;2023-04-29T10:03:30;7.87;;;3.35;;
56720;SDS011;53183;47.412;18.884;2023-04-29T10:06:00;7.95;;;3.30;;
56720;SDS011;53183;47.412;18.884;2023-04-29T10:08:28;4.43;;;2.78;;
56720;SDS011;53183;47.412;18.884;2023-04-29T10:10:58;6.35;;;2.92;;
56720;SDS011;53183;47.412;18.884;2023-04-29T10:13:29;4.57;;;3.05;;
56720;SDS011;53183;47.412;18.884;2023-04-29T10:18:52;5.03;;;3.08;;
56720;SDS011;53183;47.412;18.884;2023-04-29T10:21:24;9.13;;;3.53;;
56720;SDS011;53183;47.412;18.884;2023-04-29T10:23:58;9.43;;;3.12;;
56720;SDS011;53183;47.412;18.884;2023-04-29T10:26:28;4.40;;;3.17;;
56720;SDS011;53183;47.412;18.884;2023-04-29T10:28:56;7.20;;;3.50;;
56720;SDS011;53183;47.412;18.884;2023-04-29T10:31:28;10.30;;;4.10;;
56720;SDS011;53183;47.412;18.884;2023-04-29T10:33:58;6.03;;;3.03;;
56720;SDS011;53183;47.412;18.884;2023-04-29T10:36:27;6.57;;;3.12;;
56720;SDS011;53183;47.412;18.884;2023-04-29T10:38:58;8.43;;;3.62;;
56720;SDS011;53183;47.412;18.884;2023-04-29T10:41:30;9.63;;;4.12;;
56720;SDS011;53183;47.412;18.884;2023-04-29T10:44:02;6.10;;;3.22;;
56720;SDS011;53183;47.412;18.884;2023-04-29T10:46:30;6.55;;;3.83;;
56720;SDS011;53183;47.412;18.884;2023-04-29T10:49:01;5.57;;;4.12;;
56720;SDS011;53183;47.412;18.884;2023-04-29T10:51:48;4.62;;;3.30;;
56720;SDS011;53183;47.412;18.884;2023-04-29T10:54:15;6.15;;;3.30;;
56720;SDS011;53183;47.412;18.884;2023-04-29T10:56:48;7.55;;;3.67;;
56720;SDS011;53183;47.412;18.884;2023-04-29T10:59:20;8.15;;;3.33;;
56720;SDS011;53183;47.412;18.884;2023-04-29T11:01:49;10.82;;;3.80;;
56720;SDS011;53183;47.412;18.884;2023-04-29T11:04:21;5.93;;;3.78;;
56720;SDS011;53183;47.412;18.884;2023-04-29T11:06:52;6.18;;;3.28;;
56720;SDS011;53183;47.412;18.884;2023-04-29T11:09:25;7.40;;;3.83;;
56720;SDS011;53183;47.412;18.884;2023-04-29T11:14:28;7.82;;;3.58;;
56720;SDS011;53183;47.412;18.884;2023-04-29T11:16:58;5.95;;;3.60;;
56720;SDS011;53183;47.412;18.884;2023-04-29T11:19:34;6.90;;;3.53;;
56720;SDS011;53183;47.412;18.884;2023-04-29T11:24:48;6.30;;;4.10;;
56720;SDS011;53183;47.412;18.884;2023-04-29T11:27:34;6.53;;;4.00;;
56720;SDS011;53183;47.412;18.884;2023-04-29T11:30:05;7.37;;;3.33;;
56720;SDS011;53183;47.412;18.884;2023-04-29T11:32:37;8.50;;;3.75;;
56720;SDS011;53183;47.412;18.884;2023-04-29T11:35:10;6.68;;;3.05;;
56720;SDS011;53183;47.412;18.884;2023-04-29T11:37:39;7.50;;;3.57;;
56720;SDS011;53183;47.412;18.884;2023-04-29T11:40:08;5.47;;;3.60;;
56720;SDS011;53183;47.412;18.884;2023-04-29T11:42:40;14.23;;;3.80;;
56720;SDS011;53183;47.412;18.884;2023-04-29T11:45:10;5.80;;;3.63;;
56720;SDS011;53183;47.412;18.884;2023-04-29T11:47:41;4.40;;;3.47;;
56720;SDS011;53183;47.412;18.884;2023-04-29T11:50:11;4.07;;;3.20;;
56720;SDS011;53183;47.412;18.884;2023-04-29T11:52:39;7.28;;;3.85;;
56720;SDS011;53183;47.412;18.884;2023-04-29T11:55:07;7.10;;;3.78;;
56720;SDS011;53183;47.412;18.884;2023-04-29T11:57:36;9.95;;;3.42;;
56720;SDS011;53183;47.412;18.884;2023-04-29T12:00:07;5.40;;;2.72;;
56720;SDS011;53183;47.412;18.884;2023-04-29T12:02:36;4.15;;;2.90;;
56720;SDS011;53183;47.412;18.884;2023-04-29T12:05:07;6.50;;;2.97;;
56720;SDS011;53183;47.412;18.884;2023-04-29T12:07:35;8.80;;;3.00;;
56720;SDS011;53183;47.412;18.884;2023-04-29T12:10:06;4.85;;;3.33;;
56720;SDS011;53183;47.412;18.884;2023-04-29T12:12:35;6.55;;;3.65;;
56720;SDS011;53183;47.412;18.884;2023-04-29T12:15:07;4.55;;;3.33;;
56720;SDS011;53183;47.412;18.884;2023-04-29T12:17:38;6.53;;;3.35;;
56720;SDS011;53183;47.412;18.884;2023-04-29T12:20:07;5.87;;;2.87;;
56720;SDS011;53183;47.412;18.884;2023-04-29T12:22:38;3.95;;;3.00;;
56720;SDS011;53183;47.412;18.884;2023-04-29T12:25:05;4.35;;;2.65;;
56720;SDS011;53183;47.412;18.884;2023-04-29T12:27:34;5.40;;;2.87;;
56720;SDS011;53183;47.412;18.884;2023-04-29T12:30:05;5.72;;;3.12;;
56720;SDS011;53183;47.412;18.884;2023-04-29T12:32:35;5.07;;;2.67;;
56720;SDS011;53183;47.412;18.884;2023-04-29T12:35:04;5.12;;;3.03;;
56720;SDS011;53183;47.412;18.884;2023-04-29T12:37:32;4.25;;;2.80;;
56720;SDS011;53183;47.412;18.884;2023-04-29T12:39:59;5.10;;;3.00;;
56720;SDS011;53183;47.412;18.884;2023-04-29T12:42:32;4.28;;;3.08;;
56720;SDS011;53183;47.412;18.884;2023-04-29T12:45:02;7.03;;;3.10;;
56720;SDS011;53183;47.412;18.884;2023-04-29T12:47:32;4.87;;;2.85;;
56720;SDS011;53183;47.412;18.884;2023-04-29T12:50:00;3.78;;;2.97;;
56720;SDS011;53183;47.412;18.884;2023-04-29T12:52:28;11.23;;;3.25;;
56720;SDS011;53183;47.412;18.884;2023-04-29T12:54:55;7.97;;;3.12;;
56720;SDS011;53183;47.412;18.884;2023-04-29T12:57:23;3.85;;;2.87;;
56720;SDS011;53183;47.412;18.884;2023-04-29T12:59:52;6.10;;;3.22;;
56720;SDS011;53183;47.412;18.884;2023-04-29T13:02:19;6.10;;;3.08;;
56720;SDS011;53183;47.412;18.884;2023-04-29T13:04:47;5.55;;;3.70;;
56720;SDS011;53183;47.412;18.884;2023-04-29T13:07:15;4.78;;;3.03;;
56720;SDS011;53183;47.412;18.884;2023-04-29T13:09:42;4.25;;;2.50;;
56720;SDS011;53183;47.412;18.884;2023-04-29T13:12:09;4.25;;;2.78;;
56720;SDS011;53183;47.412;18.884;2023-04-29T13:14:36;3.75;;;2.37;;
56720;SDS011;53183;47.412;18.884;2023-04-29T13:17:04;4.72;;;2.55;;
56720;SDS011;53183;47.412;18.884;2023-04-29T13:19:32;5.97;;;3.03;;
56720;SDS011;53183;47.412;18.884;2023-04-29T13:22:17;5.87;;;3.00;;
56720;SDS011;53183;47.412;18.884;2023-04-29T13:24:44;5.75;;;2.80;;
56720;SDS011;53183;47.412;18.884;2023-04-29T13:27:11;4.70;;;2.85;;
56720;SDS011;53183;47.412;18.884;2023-04-29T13:29:39;6.55;;;3.55;;
56720;SDS011;53183;47.412;18.884;2023-04-29T13:32:06;6.50;;;2.80;;
56720;SDS011;53183;47.412;18.884;2023-04-29T13:34:34;2.92;;;2.60;;
56720;SDS011;53183;47.412;18.884;2023-04-29T13:37:02;8.55;;;3.05;;
56720;SDS011;53183;47.412;18.884;2023-04-29T13:39:29;5.03;;;2.95;;
56720;SDS011;53183;47.412;18.884;2023-04-29T13:41:57;3.28;;;2.83;;
56720;SDS011;53183;47.412;18.884;2023-04-29T13:44:25;6.75;;;3.08;;
56720;SDS011;53183;47.412;18.884;2023-04-29T13:47:13;10.25;;;3.53;;
56720;SDS011;53183;47.412;18.884;2023-04-29T13:49:42;9.20;;;2.92;;
56720;SDS011;53183;47.412;18.884;2023-04-29T13:52:15;6.37;;;2.90;;
56720;SDS011;53183;47.412;18.884;2023-04-29T13:54:45;4.62;;;2.65;;
56720;SDS011;53183;47.412;18.884;2023-04-29T13:57:15;5.43;;;3.10;;
56720;SDS011;53183;47.412;18.884;2023-04-29T14:00:02;3.60;;;2.87;;
56720;SDS011;53183;47.412;18.884;2023-04-29T14:02:50;4.20;;;2.37;;
56720;SDS011;53183;47.412;18.884;2023-04-29T14:05:20;4.37;;;2.67;;
56720;SDS011;53183;47.412;18.884;2023-04-29T14:07:48;6.60;;;2.97;;
56720;SDS011;53183;47.412;18.884;2023-04-29T14:10:15;3.87;;;2.70;;
56720;SDS011;53183;47.412;18.884;2023-04-29T14:12:42;6.43;;;2.95;;
56720;SDS011;53183;47.412;18.884;2023-04-29T14:15:09;4.20;;;2.60;;
56720;SDS011;53183;47.412;18.884;2023-04-29T14:17:37;6.97;;;2.60;;
56720;SDS011;53183;47.412;18.884;2023-04-29T14:20:04;11.15;;;3.33;;
56720;SDS011;53183;47.412;18.884;2023-04-29T14:22:32;4.70;;;2.90;;
56720;SDS011;53183;47.412;18.884;2023-04-29T14:24:59;4.75;;;3.28;;
56720;SDS011;53183;47.412;18.884;2023-04-29T14:27:26;6.53;;;2.35;;
56720;SDS011;53183;47.412;18.884;2023-04-29T14:29:53;6.68;;;3.03;;
56720;SDS011;53183;47.412;18.884;2023-04-29T14:32:20;5.15;;;2.87;;
56720;SDS011;53183;47.412;18.884;2023-04-29T14:34:48;6.07;;;2.70;;
56720;SDS011;53183;47.412;18.884;2023-04-29T14:37:15;3.55;;;2.92;;
56720;SDS011;53183;47.412;18.884;2023-04-29T14:39:42;6.85;;;2.85;;
56720;SDS011;53183;47.412;18.884;2023-04-29T14:42:09;9.15;;;3.35;;
56720;SDS011;53183;47.412;18.884;2023-04-29T14:44:36;4.47;;;2.78;;
56720;SDS011;53183;47.412;18.884;2023-04-29T14:47:03;3.12;;;2.37;;
56720;SDS011;53183;47.412;18.884;2023-04-29T14:49:30;9.52;;;3.30;;
56720;SDS011;53183;47.412;18.884;2023-04-29T14:51:57;9.63;;;2.70;;
56720;SDS011;53183;47.412;18.884;2023-04-29T14:54:25;4.35;;;2.70;;
56720;SDS011;53183;47.412;18.884;2023-04-29T14:56:53;6.30;;;3.00;;
56720;SDS011;53183;47.412;18.884;2023-04-29T14:59:20;3.22;;;2.60;;